Airfield :
LOGIN :

Register | Disclaimer

   EN    FR    IT 

 










Legend :    VFR   Marginal VFR   IFR   Intensive IFR   Very Intensive IFR
Visi :
Ceiling :
>= 8 km
>= 3000ft
5 to 8 km
1000 to 3000 ft
1500m to 5 km
500 to 1000 ft
800 to 1500m
200 to 500 ft
< 800m
< 200 ft
Symbols :   Thunderstorms  Fog  Heavy snow  Heavy precipitations  Wind > 20 kt
SIGMETs :     Misc.  Thunderstorms  Icing  Turbulence  Mountain Waves  Volcanic Ashes







- Airport Elevation : 1416 ft
- IATA code : ZRH


LSZH - Zurich

CURRENT METAR :
  • 281220Z 14007KT 110V180 9999 FEW025 SCT030 BKN040 18/14 Q1018 NOSIG

EXPIRED METARs :
  • 281150Z 10006KT 070V170 9999 FEW018 SCT028 BKN040 18/14 Q1018 NOSIG
  • 281120Z 12006KT 9999 FEW017 SCT020 BKN035 17/14 Q1018 NOSIG
  • 281050Z 17006KT 140V210 9999 FEW015 SCT020 BKN035 18/13 Q1018 NOSIG
  • 281020Z 24006KT 200V280 9999 FEW012 SCT025 BKN040 18/12 Q1018 NOSIG
  • 280950Z 22007KT 9999 FEW014 SCT025 BKN048 18/13 Q1018 NOSIG

TAF TAF LSZH
Valid from the 28 at 09:00 until the 29 at 15:00 UTC


280825Z 2809/2915 26007KT 9999 FEW015 BKN050 TX23/2815Z TN13/2904Z TX28/2915Z
PROB40
TEMPO 2810/2817 29010KT
BECMG 2817/2819 CAVOK
PROB30 2903/2906 4000 MIFG NSC
BECMG 2912/2914 9999 FEW060
ATIS : +41 43 816 2295 (DEP) +41 43 816 2294 (ARR)
No reported NOTAMs for that airfield.



MET'MAP, your aeronautical weather chart ! - Copyright ORBIFLY December 2007 - Disclaimer

ORBIFLY MET'MAP TEAM :

Programming & Development : Alexandra Zaïnal
Concept & Development : Baudouin d'Aumeries
Co-Development & Prog : Marc-Olivier Méhu
Technical & hardware support : Manuel Goepfert

Contact : metmap@orbifly.com




SOURCES & CREDITS :

   NOAA